Terminal Aerodrome Forecast
Issued by NWS

Home | Current Version | Previous Version | Text Only | Print | Product List | Glossary On
Versions: 1 2 3 4 5 6 7 8 9 10 11 12 13 14 15 16 17 18
000
FTUS44 KTSA 022340
TAFMLC
TAF
KMLC 022340Z 0300/0324 22012KT P6SM SCT060 BKN180
     FM030100 19010KT P6SM VCTS BKN050CB BKN180
     FM030600 18005KT P6SM VCTS BKN050CB
     FM031200 21006KT 5SM -TSRA BR SCT015 BKN025CB BKN050
     FM032100 19007KT P6SM VCTS BKN035CB PROB30 0321/0324 5SM -TSRA
      BKN030CB=

USA.gov is the U.S. government's official web portal to all federal, state and local government web resources and services.